sensor_id;sensor_type;location;lat;lon;timestamp;pressure;altitude;pressure_sealevel;temperature;humidity
3590;BME280;1809;48.470;9.226;2022-08-03T00:00:58;96957.78;;;19.21;100.00
3590;BME280;1809;48.470;9.226;2022-08-03T00:03:23;96952.25;;;19.18;100.00
3590;BME280;1809;48.470;9.226;2022-08-03T00:05:49;96952.25;;;19.18;100.00
3590;BME280;1809;48.470;9.226;2022-08-03T00:08:15;96949.41;;;19.26;100.00
3590;BME280;1809;48.470;9.226;2022-08-03T00:10:40;96951.66;;;19.24;100.00
3590;BME280;1809;48.470;9.226;2022-08-03T00:13:05;96947.50;;;19.27;100.00
3590;BME280;1809;48.470;9.226;2022-08-03T00:15:31;96950.44;;;19.22;100.00
3590;BME280;1809;48.470;9.226;2022-08-03T00:17:56;96943.78;;;19.19;100.00
3590;BME280;1809;48.470;9.226;2022-08-03T00:20:21;96946.81;;;19.18;100.00
3590;BME280;1809;48.470;9.226;2022-08-03T00:22:48;96945.94;;;19.14;100.00
3590;BME280;1809;48.470;9.226;2022-08-03T00:25:13;96943.78;;;19.19;100.00
3590;BME280;1809;48.470;9.226;2022-08-03T00:27:39;96939.31;;;19.11;100.00
3590;BME280;1809;48.470;9.226;2022-08-03T00:30:05;96936.66;;;19.15;100.00
3590;BME280;1809;48.470;9.226;2022-08-03T00:32:30;96933.94;;;19.15;100.00
3590;BME280;1809;48.470;9.226;2022-08-03T00:34:59;96933.41;;;19.09;100.00
3590;BME280;1809;48.470;9.226;2022-08-03T00:37:24;96928.47;;;19.11;100.00
3590;BME280;1809;48.470;9.226;2022-08-03T00:39:49;96938.41;;;19.07;100.00
3590;BME280;1809;48.470;9.226;2022-08-03T00:42:15;96929.38;;;19.03;100.00
3590;BME280;1809;48.470;9.226;2022-08-03T00:44:41;96935.56;;;19.04;100.00
3590;BME280;1809;48.470;9.226;2022-08-03T00:47:08;96928.38;;;18.96;100.00
3590;BME280;1809;48.470;9.226;2022-08-03T00:49:35;96932.22;;;18.95;100.00
3590;BME280;1809;48.470;9.226;2022-08-03T00:52:01;96933.69;;;18.92;100.00
3590;BME280;1809;48.470;9.226;2022-08-03T00:54:26;96933.69;;;18.92;100.00
3590;BME280;1809;48.470;9.226;2022-08-03T00:56:52;96934.94;;;18.83;100.00
3590;BME280;1809;48.470;9.226;2022-08-03T00:59:18;96929.63;;;18.86;100.00
3590;BME280;1809;48.470;9.226;2022-08-03T01:01:43;96938.44;;;18.83;100.00
3590;BME280;1809;48.470;9.226;2022-08-03T01:04:09;96936.44;;;18.80;100.00
3590;BME280;1809;48.470;9.226;2022-08-03T01:06:46;96931.69;;;18.77;100.00
3590;BME280;1809;48.470;9.226;2022-08-03T01:12:12;96930.34;;;18.71;100.00
3590;BME280;1809;48.470;9.226;2022-08-03T01:14:54;96928.88;;;18.73;100.00
3590;BME280;1809;48.470;9.226;2022-08-03T01:17:43;96925.81;;;18.63;100.00
3590;BME280;1809;48.470;9.226;2022-08-03T01:20:13;96921.31;;;18.67;100.00
3590;BME280;1809;48.470;9.226;2022-08-03T01:23:05;96920.41;;;18.63;100.00
3590;BME280;1809;48.470;9.226;2022-08-03T01:26:08;96923.78;;;18.72;100.00
3590;BME280;1809;48.470;9.226;2022-08-03T01:31:56;96920.41;;;18.63;100.00
3590;BME280;1809;48.470;9.226;2022-08-03T01:34:25;96911.59;;;18.54;100.00
3590;BME280;1809;48.470;9.226;2022-08-03T01:36:53;96911.59;;;18.54;100.00
3590;BME280;1809;48.470;9.226;2022-08-03T01:39:21;96909.34;;;18.56;100.00
3590;BME280;1809;48.470;9.226;2022-08-03T01:41:53;96910.22;;;18.48;100.00
3590;BME280;1809;48.470;9.226;2022-08-03T01:44:25;96909.09;;;18.49;100.00
3590;BME280;1809;48.470;9.226;2022-08-03T01:46:53;96906.50;;;18.40;100.00
3590;BME280;1809;48.470;9.226;2022-08-03T01:49:18;96907.16;;;18.37;100.00
3590;BME280;1809;48.470;9.226;2022-08-03T01:51:46;96905.50;;;18.33;100.00
3590;BME280;1809;48.470;9.226;2022-08-03T01:54:13;96903.13;;;18.31;100.00
3590;BME280;1809;48.470;9.226;2022-08-03T01:56:39;96901.88;;;18.41;100.00
3590;BME280;1809;48.470;9.226;2022-08-03T01:59:09;96905.38;;;18.29;100.00
3590;BME280;1809;48.470;9.226;2022-08-03T02:01:36;96901.19;;;18.32;100.00
3590;BME280;1809;48.470;9.226;2022-08-03T02:04:02;96902.78;;;18.33;100.00
3590;BME280;1809;48.470;9.226;2022-08-03T02:06:31;96902.44;;;18.34;100.00
3590;BME280;1809;48.470;9.226;2022-08-03T02:08:58;96904.81;;;18.36;100.00
3590;BME280;1809;48.470;9.226;2022-08-03T02:11:26;96897.81;;;18.35;100.00
3590;BME280;1809;48.470;9.226;2022-08-03T02:13:52;96896.81;;;18.27;100.00
3590;BME280;1809;48.470;9.226;2022-08-03T02:16:20;96897.38;;;18.20;100.00
3590;BME280;1809;48.470;9.226;2022-08-03T02:18:46;96899.59;;;18.18;100.00
3590;BME280;1809;48.470;9.226;2022-08-03T02:21:13;96898.72;;;18.14;100.00
3590;BME280;1809;48.470;9.226;2022-08-03T02:23:39;96897.00;;;18.10;100.00
3590;BME280;1809;48.470;9.226;2022-08-03T02:26:12;96891.03;;;18.04;100.00
3590;BME280;1809;48.470;9.226;2022-08-03T02:28:42;96894.44;;;18.01;100.00
3590;BME280;1809;48.470;9.226;2022-08-03T02:31:15;96891.94;;;17.96;100.00
3590;BME280;1809;48.470;9.226;2022-08-03T02:33:46;96894.19;;;17.94;100.00
3590;BME280;1809;48.470;9.226;2022-08-03T02:36:13;96894.19;;;17.94;100.00
3590;BME280;1809;48.470;9.226;2022-08-03T02:38:41;96888.09;;;17.97;100.00
3590;BME280;1809;48.470;9.226;2022-08-03T02:41:13;96880.44;;;17.99;100.00
3590;BME280;1809;48.470;9.226;2022-08-03T02:43:40;96882.91;;;18.04;100.00
3590;BME280;1809;48.470;9.226;2022-08-03T02:46:08;96882.69;;;18.09;100.00
3590;BME280;1809;48.470;9.226;2022-08-03T02:48:35;96884.72;;;18.00;100.00
3590;BME280;1809;48.470;9.226;2022-08-03T02:51:02;96882.69;;;17.97;100.00
3590;BME280;1809;48.470;9.226;2022-08-03T02:53:29;96881.78;;;17.93;100.00
3590;BME280;1809;48.470;9.226;2022-08-03T02:55:56;96879.19;;;17.97;100.00
3590;BME280;1809;48.470;9.226;2022-08-03T02:58:23;96887.66;;;17.95;100.00
3590;BME280;1809;48.470;9.226;2022-08-03T03:00:50;96875.72;;;17.96;100.00
3590;BME280;1809;48.470;9.226;2022-08-03T03:03:17;96890.69;;;18.06;100.00
3590;BME280;1809;48.470;9.226;2022-08-03T03:05:43;96880.66;;;18.06;100.00
3590;BME280;1809;48.470;9.226;2022-08-03T03:08:14;96891.28;;;17.99;100.00
3590;BME280;1809;48.470;9.226;2022-08-03T03:10:40;96890.56;;;17.90;100.00
3590;BME280;1809;48.470;9.226;2022-08-03T03:13:06;96885.38;;;17.85;100.00
3590;BME280;1809;48.470;9.226;2022-08-03T03:15:34;96884.81;;;17.80;100.00
3590;BME280;1809;48.470;9.226;2022-08-03T03:18:01;96884.69;;;17.76;100.00
3590;BME280;1809;48.470;9.226;2022-08-03T03:20:27;96897.28;;;17.72;100.00
3590;BME280;1809;48.470;9.226;2022-08-03T03:22:54;96887.63;;;17.83;100.00
3590;BME280;1809;48.470;9.226;2022-08-03T03:25:20;96892.81;;;17.76;100.00
3590;BME280;1809;48.470;9.226;2022-08-03T03:27:45;96888.06;;;17.73;100.00
3590;BME280;1809;48.470;9.226;2022-08-03T03:30:13;96889.97;;;17.72;100.00
3590;BME280;1809;48.470;9.226;2022-08-03T03:32:39;96894.38;;;17.77;100.00
3590;BME280;1809;48.470;9.226;2022-08-03T03:35:05;96895.94;;;17.78;100.00
3590;BME280;1809;48.470;9.226;2022-08-03T03:37:31;96887.50;;;17.67;100.00
3590;BME280;1809;48.470;9.226;2022-08-03T03:39:57;96893.91;;;17.63;100.00
3590;BME280;1809;48.470;9.226;2022-08-03T03:42:22;96896.94;;;17.61;100.00
3590;BME280;1809;48.470;9.226;2022-08-03T03:44:49;96888.25;;;17.56;100.00
3590;BME280;1809;48.470;9.226;2022-08-03T03:47:14;96890.97;;;17.56;100.00
3590;BME280;1809;48.470;9.226;2022-08-03T03:49:40;96893.38;;;17.49;100.00
3590;BME280;1809;48.470;9.226;2022-08-03T03:52:07;96893.84;;;17.51;100.00
3590;BME280;1809;48.470;9.226;2022-08-03T03:54:43;96899.47;;;17.46;100.00
3590;BME280;1809;48.470;9.226;2022-08-03T03:57:10;96897.88;;;17.45;100.00
3590;BME280;1809;48.470;9.226;2022-08-03T03:59:40;96897.06;;;17.44;100.00
3590;BME280;1809;48.470;9.226;2022-08-03T04:02:08;96899.66;;;17.41;100.00
3590;BME280;1809;48.470;9.226;2022-08-03T04:04:35;96897.88;;;17.45;100.00
3590;BME280;1809;48.470;9.226;2022-08-03T04:07:20;96897.22;;;17.48;100.00
3590;BME280;1809;48.470;9.226;2022-08-03T04:10:17;96898.66;;;17.45;100.00
3590;BME280;1809;48.470;9.226;2022-08-03T04:13:06;96897.56;;;17.46;100.00
3590;BME280;1809;48.470;9.226;2022-08-03T04:15:35;96897.22;;;17.48;100.00
3590;BME280;1809;48.470;9.226;2022-08-03T04:18:02;96893.38;;;17.49;100.00
3590;BME280;1809;48.470;9.226;2022-08-03T04:20:31;96898.00;;;17.48;100.00
3590;BME280;1809;48.470;9.226;2022-08-03T04:23:00;96898.78;;;17.49;100.00
3590;BME280;1809;48.470;9.226;2022-08-03T04:25:30;96903.97;;;17.54;100.00
3590;BME280;1809;48.470;9.226;2022-08-03T04:27:59;96899.09;;;17.56;100.00
3590;BME280;1809;48.470;9.226;2022-08-03T04:30:27;96899.97;;;17.60;100.00
3590;BME280;1809;48.470;9.226;2022-08-03T04:32:57;96891.53;;;17.61;100.00
3590;BME280;1809;48.470;9.226;2022-08-03T04:35:24;96897.53;;;17.79;100.00
3590;BME280;1809;48.470;9.226;2022-08-03T04:37:54;96899.88;;;18.50;100.00
3590;BME280;1809;48.470;9.226;2022-08-03T04:40:25;96910.25;;;19.52;100.00
3590;BME280;1809;48.470;9.226;2022-08-03T04:42:54;96906.72;;;20.57;100.00
3590;BME280;1809;48.470;9.226;2022-08-03T04:45:21;96914.16;;;21.30;100.00
3590;BME280;1809;48.470;9.226;2022-08-03T04:47:47;96912.56;;;22.09;100.00
3590;BME280;1809;48.470;9.226;2022-08-03T04:50:14;96917.47;;;22.98;100.00
3590;BME280;1809;48.470;9.226;2022-08-03T04:52:41;96923.25;;;23.23;100.00
3590;BME280;1809;48.470;9.226;2022-08-03T04:55:07;96920.97;;;23.54;100.00
3590;BME280;1809;48.470;9.226;2022-08-03T04:57:33;96922.31;;;23.38;100.00
3590;BME280;1809;48.470;9.226;2022-08-03T04:59:59;96927.84;;;23.45;100.00
3590;BME280;1809;48.470;9.226;2022-08-03T05:02:24;96925.22;;;23.89;100.00
3590;BME280;1809;48.470;9.226;2022-08-03T05:04:50;96933.22;;;24.48;100.00
3590;BME280;1809;48.470;9.226;2022-08-03T05:07:16;96933.72;;;25.19;100.00
3590;BME280;1809;48.470;9.226;2022-08-03T05:09:43;96940.63;;;25.67;100.00
3590;BME280;1809;48.470;9.226;2022-08-03T05:12:09;96933.97;;;25.61;100.00
3590;BME280;1809;48.470;9.226;2022-08-03T05:14:36;96932.06;;;25.83;100.00
3590;BME280;1809;48.470;9.226;2022-08-03T05:17:06;96934.09;;;25.14;100.00
3590;BME280;1809;48.470;9.226;2022-08-03T05:19:32;96935.53;;;25.70;100.00
3590;BME280;1809;48.470;9.226;2022-08-03T05:21:58;96938.19;;;25.48;100.00
3590;BME280;1809;48.470;9.226;2022-08-03T05:24:24;96952.06;;;25.94;100.00
3590;BME280;1809;48.470;9.226;2022-08-03T05:26:50;96944.22;;;26.00;100.00
3590;BME280;1809;48.470;9.226;2022-08-03T05:29:16;96948.63;;;27.14;100.00
3590;BME280;1809;48.470;9.226;2022-08-03T05:31:42;96945.91;;;28.04;100.00
3590;BME280;1809;48.470;9.226;2022-08-03T05:34:07;96945.47;;;28.71;100.00
3590;BME280;1809;48.470;9.226;2022-08-03T05:36:33;96948.56;;;29.18;100.00
3590;BME280;1809;48.470;9.226;2022-08-03T05:38:59;96952.97;;;29.83;100.00
3590;BME280;1809;48.470;9.226;2022-08-03T05:41:25;96953.75;;;30.41;100.00
3590;BME280;1809;48.470;9.226;2022-08-03T05:43:52;96952.63;;;30.61;100.00
3590;BME280;1809;48.470;9.226;2022-08-03T05:46:21;96946.69;;;29.82;100.00
3590;BME280;1809;48.470;9.226;2022-08-03T05:48:47;96953.88;;;30.30;100.00
3590;BME280;1809;48.470;9.226;2022-08-03T05:51:12;96950.03;;;30.24;100.00
3590;BME280;1809;48.470;9.226;2022-08-03T05:53:39;96951.19;;;29.66;100.00
3590;BME280;1809;48.470;9.226;2022-08-03T05:56:05;96947.09;;;30.08;100.00
3590;BME280;1809;48.470;9.226;2022-08-03T05:58:30;96959.34;;;30.33;100.00
3590;BME280;1809;48.470;9.226;2022-08-03T06:00:55;96953.69;;;30.17;100.00
3590;BME280;1809;48.470;9.226;2022-08-03T06:03:21;96953.38;;;31.12;100.00
3590;BME280;1809;48.470;9.226;2022-08-03T06:05:46;96958.13;;;31.54;100.00
3590;BME280;1809;48.470;9.226;2022-08-03T06:08:12;96953.00;;;32.12;100.00
3590;BME280;1809;48.470;9.226;2022-08-03T06:10:37;96950.66;;;31.90;100.00
3590;BME280;1809;48.470;9.226;2022-08-03T06:13:03;96954.88;;;31.16;100.00
3590;BME280;1809;48.470;9.226;2022-08-03T06:15:29;96955.53;;;31.24;100.00
3590;BME280;1809;48.470;9.226;2022-08-03T06:17:57;96953.88;;;30.30;100.00
3590;BME280;1809;48.470;9.226;2022-08-03T06:20:23;96946.75;;;29.75;100.00
3590;BME280;1809;48.470;9.226;2022-08-03T06:22:49;96943.25;;;29.71;100.00
3590;BME280;1809;48.470;9.226;2022-08-03T06:25:15;96949.91;;;29.74;100.00
3590;BME280;1809;48.470;9.226;2022-08-03T06:27:41;96949.72;;;30.95;100.00
3590;BME280;1809;48.470;9.226;2022-08-03T06:30:09;96954.22;;;30.62;100.00
3590;BME280;1809;48.470;9.226;2022-08-03T06:32:38;96958.25;;;30.81;100.00
3590;BME280;1809;48.470;9.226;2022-08-03T06:35:05;96959.41;;;30.30;100.00
3590;BME280;1809;48.470;9.226;2022-08-03T06:37:42;96953.06;;;30.60;100.00
3590;BME280;1809;48.470;9.226;2022-08-03T06:40:11;96951.44;;;30.62;100.00
3590;BME280;1809;48.470;9.226;2022-08-03T06:42:37;96957.69;;;30.89;100.00
3590;BME280;1809;48.470;9.226;2022-08-03T06:45:03;96954.56;;;30.87;100.00
3590;BME280;1809;48.470;9.226;2022-08-03T06:47:30;96960.94;;;31.08;100.00
3590;BME280;1809;48.470;9.226;2022-08-03T06:49:56;96955.31;;;30.91;100.00
3590;BME280;1809;48.470;9.226;2022-08-03T06:52:21;96963.47;;;30.22;100.00
3590;BME280;1809;48.470;9.226;2022-08-03T06:54:47;96951.75;;;29.54;100.00
3590;BME280;1809;48.470;9.226;2022-08-03T06:57:12;96951.13;;;29.39;100.00
3590;BME280;1809;48.470;9.226;2022-08-03T06:59:38;96950.13;;;30.70;100.00
3590;BME280;1809;48.470;9.226;2022-08-03T07:02:04;96959.03;;;31.48;100.00
3590;BME280;1809;48.470;9.226;2022-08-03T07:04:30;96965.44;;;32.20;100.00
3590;BME280;1809;48.470;9.226;2022-08-03T07:06:55;96963.81;;;32.90;100.00
3590;BME280;1809;48.470;9.226;2022-08-03T07:09:21;96961.16;;;31.99;100.00
3590;BME280;1809;48.470;9.226;2022-08-03T07:11:46;96959.19;;;30.98;100.00
3590;BME280;1809;48.470;9.226;2022-08-03T07:14:12;96958.16;;;31.31;100.00
3590;BME280;1809;48.470;9.226;2022-08-03T07:16:38;96949.22;;;32.02;100.00
3590;BME280;1809;48.470;9.226;2022-08-03T07:19:03;96949.09;;;32.93;100.00
3590;BME280;1809;48.470;9.226;2022-08-03T07:21:29;96950.66;;;33.39;98.69
3590;BME280;1809;48.470;9.226;2022-08-03T07:23:55;96947.69;;;32.53;100.00
3590;BME280;1809;48.470;9.226;2022-08-03T07:26:20;96948.22;;;32.64;100.00
3590;BME280;1809;48.470;9.226;2022-08-03T07:28:47;96943.13;;;32.63;100.00
3590;BME280;1809;48.470;9.226;2022-08-03T07:31:12;96951.47;;;32.27;100.00
3590;BME280;1809;48.470;9.226;2022-08-03T07:33:38;96952.69;;;33.23;100.00
3590;BME280;1809;48.470;9.226;2022-08-03T07:36:04;96949.09;;;31.89;100.00
3590;BME280;1809;48.470;9.226;2022-08-03T07:38:30;96949.88;;;31.31;100.00
3590;BME280;1809;48.470;9.226;2022-08-03T07:40:55;96955.41;;;31.31;100.00
3590;BME280;1809;48.470;9.226;2022-08-03T07:43:24;96950.69;;;32.42;100.00
3590;BME280;1809;48.470;9.226;2022-08-03T07:45:50;96953.13;;;32.40;100.00
3590;BME280;1809;48.470;9.226;2022-08-03T07:48:15;96948.41;;;31.66;100.00
3590;BME280;1809;48.470;9.226;2022-08-03T07:50:41;96953.81;;;31.53;100.00
3590;BME280;1809;48.470;9.226;2022-08-03T07:53:06;96950.03;;;31.43;100.00
3590;BME280;1809;48.470;9.226;2022-08-03T07:55:33;96943.69;;;31.66;100.00
3590;BME280;1809;48.470;9.226;2022-08-03T07:58:08;96935.72;;;30.82;100.00
3590;BME280;1809;48.470;9.226;2022-08-03T08:00:37;96942.81;;;29.76;100.00
3590;BME280;1809;48.470;9.226;2022-08-03T08:03:03;96935.47;;;29.32;100.00
3590;BME280;1809;48.470;9.226;2022-08-03T08:05:30;96931.84;;;28.54;100.00
3590;BME280;1809;48.470;9.226;2022-08-03T08:07:55;96925.47;;;28.09;100.00
3590;BME280;1809;48.470;9.226;2022-08-03T08:10:21;96931.53;;;27.75;100.00
3590;BME280;1809;48.470;9.226;2022-08-03T08:12:47;96930.28;;;27.87;100.00
3590;BME280;1809;48.470;9.226;2022-08-03T08:15:13;96929.88;;;27.96;100.00
3590;BME280;1809;48.470;9.226;2022-08-03T08:17:50;96926.00;;;27.83;100.00
3590;BME280;1809;48.470;9.226;2022-08-03T08:20:18;96923.38;;;27.61;100.00
3590;BME280;1809;48.470;9.226;2022-08-03T08:22:44;96928.78;;;27.75;100.00
3590;BME280;1809;48.470;9.226;2022-08-03T08:25:10;96927.16;;;27.89;100.00
3590;BME280;1809;48.470;9.226;2022-08-03T08:27:41;96929.47;;;27.94;100.00
3590;BME280;1809;48.470;9.226;2022-08-03T08:30:07;96934.94;;;27.97;100.00
3590;BME280;1809;48.470;9.226;2022-08-03T08:32:33;96925.88;;;28.11;100.00
3590;BME280;1809;48.470;9.226;2022-08-03T08:35:02;96920.66;;;28.27;100.00
3590;BME280;1809;48.470;9.226;2022-08-03T08:37:28;96923.75;;;28.33;100.00
3590;BME280;1809;48.470;9.226;2022-08-03T08:39:57;96930.44;;;28.28;100.00
3590;BME280;1809;48.470;9.226;2022-08-03T08:42:23;96924.31;;;28.61;100.00
3590;BME280;1809;48.470;9.226;2022-08-03T08:44:48;96921.94;;;28.63;100.00
3590;BME280;1809;48.470;9.226;2022-08-03T08:47:14;96925.50;;;28.57;100.00
3590;BME280;1809;48.470;9.226;2022-08-03T08:49:40;96917.81;;;28.86;100.00
3590;BME280;1809;48.470;9.226;2022-08-03T08:52:10;96915.72;;;28.97;100.00
3590;BME280;1809;48.470;9.226;2022-08-03T08:54:39;96926.97;;;29.13;100.00
3590;BME280;1809;48.470;9.226;2022-08-03T08:57:06;96921.31;;;29.27;100.00
3590;BME280;1809;48.470;9.226;2022-08-03T08:59:33;96918.72;;;29.13;100.00
3590;BME280;1809;48.470;9.226;2022-08-03T09:01:59;96915.47;;;29.21;100.00
3590;BME280;1809;48.470;9.226;2022-08-03T09:04:29;96914.31;;;29.19;100.00
3590;BME280;1809;48.470;9.226;2022-08-03T09:06:55;96921.22;;;29.38;100.00
3590;BME280;1809;48.470;9.226;2022-08-03T09:09:22;96916.63;;;29.24;100.00
3590;BME280;1809;48.470;9.226;2022-08-03T09:11:48;96908.47;;;29.51;100.00
3590;BME280;1809;48.470;9.226;2022-08-03T09:14:14;96911.50;;;29.60;100.00
3590;BME280;1809;48.470;9.226;2022-08-03T09:16:57;96912.00;;;29.81;100.00
3590;BME280;1809;48.470;9.226;2022-08-03T09:19:27;96913.66;;;29.75;100.00
3590;BME280;1809;48.470;9.226;2022-08-03T09:24:38;96907.28;;;30.09;100.00
3590;BME280;1809;48.470;9.226;2022-08-03T09:27:19;96912.47;;;30.07;100.00
3590;BME280;1809;48.470;9.226;2022-08-03T09:29:49;96913.81;;;30.22;100.00
3590;BME280;1809;48.470;9.226;2022-08-03T09:32:14;96904.09;;;30.37;100.00
3590;BME280;1809;48.470;9.226;2022-08-03T09:34:46;96908.28;;;30.22;100.00
3590;BME280;1809;48.470;9.226;2022-08-03T09:37:13;96912.66;;;30.46;100.00
3590;BME280;1809;48.470;9.226;2022-08-03T09:39:40;96907.44;;;30.25;100.00
3590;BME280;1809;48.470;9.226;2022-08-03T09:42:17;96900.16;;;30.38;100.00
3590;BME280;1809;48.470;9.226;2022-08-03T09:44:47;96904.16;;;30.60;100.00
3590;BME280;1809;48.470;9.226;2022-08-03T09:47:28;96907.50;;;30.71;100.00
3590;BME280;1809;48.470;9.226;2022-08-03T09:52:37;96910.28;;;30.95;100.00
3590;BME280;1809;48.470;9.226;2022-08-03T09:55:11;96902.31;;;31.20;100.00
3590;BME280;1809;48.470;9.226;2022-08-03T09:57:37;96901.03;;;31.24;100.00
3590;BME280;1809;48.470;9.226;2022-08-03T10:00:13;96895.84;;;31.46;100.00
3590;BME280;1809;48.470;9.226;2022-08-03T10:02:42;96896.50;;;31.34;100.00
3590;BME280;1809;48.470;9.226;2022-08-03T10:05:10;96895.56;;;31.21;100.00
3590;BME280;1809;48.470;9.226;2022-08-03T10:07:47;96903.28;;;31.10;100.00
3590;BME280;1809;48.470;9.226;2022-08-03T10:10:14;96904.34;;;31.16;100.00
3590;BME280;1809;48.470;9.226;2022-08-03T10:12:41;96899.81;;;31.06;100.00
3590;BME280;1809;48.470;9.226;2022-08-03T10:15:08;96896.06;;;31.16;100.00
3590;BME280;1809;48.470;9.226;2022-08-03T10:17:35;96885.66;;;31.43;99.92
3590;BME280;1809;48.470;9.226;2022-08-03T10:20:01;96885.59;;;31.66;100.00
3590;BME280;1809;48.470;9.226;2022-08-03T10:22:33;96885.41;;;31.57;100.00
3590;BME280;1809;48.470;9.226;2022-08-03T10:25:03;96877.16;;;31.34;100.00
3590;BME280;1809;48.470;9.226;2022-08-03T10:27:37;96873.53;;;31.37;100.00
3590;BME280;1809;48.470;9.226;2022-08-03T10:30:08;96879.91;;;31.34;100.00
3590;BME280;1809;48.470;9.226;2022-08-03T10:32:43;96876.66;;;31.59;100.00
3590;BME280;1809;48.470;9.226;2022-08-03T10:35:14;96877.28;;;31.66;100.00
3590;BME280;1809;48.470;9.226;2022-08-03T10:37:46;96865.75;;;31.87;100.00
3590;BME280;1809;48.470;9.226;2022-08-03T10:40:17;96867.28;;;31.88;100.00
3590;BME280;1809;48.470;9.226;2022-08-03T10:42:48;96862.31;;;32.00;100.00
3590;BME280;1809;48.470;9.226;2022-08-03T10:45:20;96868.22;;;32.18;100.00
3590;BME280;1809;48.470;9.226;2022-08-03T10:47:47;96865.78;;;32.20;100.00
3590;BME280;1809;48.470;9.226;2022-08-03T10:50:13;96860.09;;;32.43;96.18
3590;BME280;1809;48.470;9.226;2022-08-03T10:53:02;96861.22;;;32.45;93.76
3590;BME280;1809;48.470;9.226;2022-08-03T10:58:14;96862.31;;;32.00;88.96
3590;BME280;1809;48.470;9.226;2022-08-03T11:00:49;96856.72;;;31.67;91.49
3590;BME280;1809;48.470;9.226;2022-08-03T11:03:15;96849.16;;;31.87;90.45
3590;BME280;1809;48.470;9.226;2022-08-03T11:05:45;96849.66;;;31.98;93.66
3590;BME280;1809;48.470;9.226;2022-08-03T11:10:47;96855.97;;;31.83;92.77
3590;BME280;1809;48.470;9.226;2022-08-03T11:13:16;96848.03;;;32.01;91.88
3590;BME280;1809;48.470;9.226;2022-08-03T11:15:44;96851.38;;;32.28;87.53
3590;BME280;1809;48.470;9.226;2022-08-03T11:18:11;96841.25;;;32.38;91.64
3590;BME280;1809;48.470;9.226;2022-08-03T11:20:52;96841.56;;;32.08;96.86
3590;BME280;1809;48.470;9.226;2022-08-03T11:28:38;96836.03;;;32.40;94.45
3590;BME280;1809;48.470;9.226;2022-08-03T11:34:08;96843.41;;;32.91;97.55
3590;BME280;1809;48.470;9.226;2022-08-03T11:39:38;96831.38;;;33.27;84.31
3590;BME280;1809;48.470;9.226;2022-08-03T11:44:56;96835.81;;;32.79;87.46
3590;BME280;1809;48.470;9.226;2022-08-03T11:47:22;96823.09;;;33.11;87.03
3590;BME280;1809;48.470;9.226;2022-08-03T11:49:51;96819.81;;;33.16;85.80
3590;BME280;1809;48.470;9.226;2022-08-03T11:52:18;96826.63;;;33.40;78.40
3590;BME280;1809;48.470;9.226;2022-08-03T11:54:43;96818.84;;;33.47;80.60
3590;BME280;1809;48.470;9.226;2022-08-03T11:57:09;96829.38;;;33.69;80.68
3590;BME280;1809;48.470;9.226;2022-08-03T11:59:36;96819.41;;;33.42;86.27
3590;BME280;1809;48.470;9.226;2022-08-03T12:02:09;96817.63;;;33.36;85.91
3590;BME280;1809;48.470;9.226;2022-08-03T12:04:56;96814.00;;;33.51;79.40
3590;BME280;1809;48.470;9.226;2022-08-03T12:07:28;96812.22;;;33.58;77.74
3590;BME280;1809;48.470;9.226;2022-08-03T12:10:10;96805.75;;;33.35;80.26
3590;BME280;1809;48.470;9.226;2022-08-03T12:12:36;96809.78;;;33.06;79.56
3590;BME280;1809;48.470;9.226;2022-08-03T12:15:03;96809.69;;;32.80;78.37
3590;BME280;1809;48.470;9.226;2022-08-03T12:17:46;96815.94;;;32.68;79.61
3590;BME280;1809;48.470;9.226;2022-08-03T12:20:22;96814.81;;;32.94;80.91
3590;BME280;1809;48.470;9.226;2022-08-03T12:22:47;96810.66;;;33.03;74.60
3590;BME280;1809;48.470;9.226;2022-08-03T12:25:21;96810.19;;;33.33;77.08
3590;BME280;1809;48.470;9.226;2022-08-03T12:27:46;96802.34;;;33.03;83.33
3590;BME280;1809;48.470;9.226;2022-08-03T12:30:13;96817.53;;;32.82;85.01
3590;BME280;1809;48.470;9.226;2022-08-03T12:32:41;96809.50;;;32.87;87.29
3590;BME280;1809;48.470;9.226;2022-08-03T12:35:08;96806.50;;;32.94;86.76
3590;BME280;1809;48.470;9.226;2022-08-03T12:37:33;96793.97;;;33.19;85.39
3590;BME280;1809;48.470;9.226;2022-08-03T12:39:59;96800.53;;;33.25;77.11
3590;BME280;1809;48.470;9.226;2022-08-03T12:42:32;96797.00;;;33.37;78.43
3590;BME280;1809;48.470;9.226;2022-08-03T12:44:58;96804.59;;;32.91;81.20
3590;BME280;1809;48.470;9.226;2022-08-03T12:47:23;96803.25;;;32.83;76.61
3590;BME280;1809;48.470;9.226;2022-08-03T12:49:52;96794.53;;;32.97;77.31
3590;BME280;1809;48.470;9.226;2022-08-03T12:52:20;96787.97;;;33.20;78.44
3590;BME280;1809;48.470;9.226;2022-08-03T12:54:57;96795.22;;;33.43;75.52
3590;BME280;1809;48.470;9.226;2022-08-03T12:57:23;96787.91;;;33.49;78.63
3590;BME280;1809;48.470;9.226;2022-08-03T12:59:49;96785.59;;;33.60;82.61
3590;BME280;1809;48.470;9.226;2022-08-03T13:02:19;96785.50;;;33.76;81.05
3590;BME280;1809;48.470;9.226;2022-08-03T13:04:46;96783.09;;;33.66;75.37
3590;BME280;1809;48.470;9.226;2022-08-03T13:07:13;96785.41;;;33.67;73.91
3590;BME280;1809;48.470;9.226;2022-08-03T13:09:44;96786.19;;;33.80;74.35
3590;BME280;1809;48.470;9.226;2022-08-03T13:12:12;96786.28;;;33.64;72.99
3590;BME280;1809;48.470;9.226;2022-08-03T13:14:38;96786.25;;;33.39;70.60
3590;BME280;1809;48.470;9.226;2022-08-03T13:17:04;96783.09;;;33.66;74.12
3590;BME280;1809;48.470;9.226;2022-08-03T13:19:32;96785.63;;;33.73;71.91
3590;BME280;1809;48.470;9.226;2022-08-03T13:21:57;96782.63;;;33.92;73.72
3590;BME280;1809;48.470;9.226;2022-08-03T13:24:23;96787.94;;;33.87;69.48
3590;BME280;1809;48.470;9.226;2022-08-03T13:26:48;96787.03;;;34.02;70.68
3590;BME280;1809;48.470;9.226;2022-08-03T13:29:15;96786.19;;;33.80;67.39
3590;BME280;1809;48.470;9.226;2022-08-03T13:31:40;96779.94;;;34.01;72.84
3590;BME280;1809;48.470;9.226;2022-08-03T13:34:05;96790.59;;;34.03;70.85
3590;BME280;1809;48.470;9.226;2022-08-03T13:36:31;96779.03;;;34.04;71.38
3590;BME280;1809;48.470;9.226;2022-08-03T13:38:56;96780.41;;;33.87;72.20
3590;BME280;1809;48.470;9.226;2022-08-03T13:41:21;96779.63;;;33.74;71.86
3590;BME280;1809;48.470;9.226;2022-08-03T13:43:46;96761.84;;;33.46;75.91
3590;BME280;1809;48.470;9.226;2022-08-03T13:46:12;96762.81;;;33.15;75.95
3590;BME280;1809;48.470;9.226;2022-08-03T13:48:38;96761.59;;;33.41;77.29